Cherokee, Kansas
Current Conditions -  °F | °C
As of 12:55 AM on Thursday 23 Oct 2014 (Local Time) from KPTS Reporting Station
Clear Clear  
Wind Chill: 59°   Ceiling: Unl
Heat Index: 59°   Visibility: 10mi
Dew Point: 53°   Wind: 5mph
Humidity: 81%   Direction: 150°SSE
Pressure: 30.12"   Gusts: NA
Location:  37.35°N, 94.81°W
Report Text: KPTS 230555Z AUTO 15004KT 10SM CLR 15/12 A3012 RMK AO2 T01510118
Loading
Personal Weather Stations






























Interactive Weather Map
Tropical Storm Tracking
New forecast layout! Learn more

10-Day Weather Forecast

Advertisements
Track Severe Weather on mobile